4XCBD SPZO-SPZO
Flight info
| Callsign | 4XCBD |
|---|---|
| Flight time | 0h 31m |
| Altitude | 12000 |
| Route | SPZO |
| Aircraft | CTX/L-V/N |
Departure
| Time | 2026-05-08 14:54 |
|---|---|
| Airport | Alejandro Velasco Astete International Airport (SPZO) |
Arrival
| Time | 2026-05-08 15:25 |
|---|---|
| Airport | Alejandro Velasco Astete International Airport (SPZO) |
| Time | Latitude | Longitude | Altitude | Speed | Heading |
|---|---|---|---|---|---|
| 2026-05-08 14:50 | -13.53730 | -71.92360 | 10707 ft | 0 kts | 276° |
| 2026-05-08 14:52 | -13.53729 | -71.92369 | 10707 ft | 10 kts | 275° |
| 2026-05-08 14:53 | -13.53708 | -71.92594 | 10720 ft | 53 kts | 276° |
| 2026-05-08 14:53 | -13.53657 | -71.93104 | 10748 ft | 90 kts | 275° |
| 2026-05-08 14:53 | -13.53624 | -71.93857 | 10831 ft | 117 kts | 274° |
| 2026-05-08 14:53 | -13.53528 | -71.94726 | 11117 ft | 125 kts | 273° |
| 2026-05-08 14:54 | -13.53487 | -71.95319 | 11304 ft | 128 kts | 276° |
| 2026-05-08 14:54 | -13.53229 | -71.96087 | 11801 ft | 105 kts | 314° |
| 2026-05-08 14:54 | -13.52207 | -71.96106 | 11826 ft | 139 kts | 55° |
| 2026-05-08 14:54 | -13.52190 | -71.95177 | 12159 ft | 138 kts | 105° |
| 2026-05-08 14:55 | -13.52529 | -71.94218 | 12427 ft | 141 kts | 115° |
| 2026-05-08 14:55 | -13.52913 | -71.93340 | 12922 ft | 128 kts | 111° |
| 2026-05-08 14:55 | -13.53048 | -71.92711 | 13001 ft | 144 kts | 92° |
| 2026-05-08 14:55 | -13.52808 | -71.91688 | 13183 ft | 151 kts | 56° |
| 2026-05-08 14:59 | -13.51404 | -71.90687 | 13943 ft | 141 kts | 8° |
| 2026-05-08 14:59 | -13.50506 | -71.90583 | 14471 ft | 118 kts | 353° |
| 2026-05-08 15:00 | -13.49745 | -71.90728 | 14940 ft | 103 kts | 349° |
| 2026-05-08 15:00 | -13.49053 | -71.90629 | 15297 ft | 108 kts | 29° |
| 2026-05-08 15:00 | -13.48423 | -71.90116 | 15426 ft | 118 kts | 31° |
| 2026-05-08 15:00 | -13.47725 | -71.89729 | 15691 ft | 110 kts | 18° |
| 2026-05-08 15:01 | -13.47117 | -71.89289 | 15890 ft | 118 kts | 46° |
| 2026-05-08 15:01 | -13.46532 | -71.88659 | 16170 ft | 115 kts | 42° |
| 2026-05-08 15:01 | -13.45967 | -71.88123 | 16418 ft | 118 kts | 27° |
| 2026-05-08 15:01 | -13.45374 | -71.87444 | 15435 ft | 194 kts | 76° |
| 2026-05-08 15:02 | -13.44978 | -71.86452 | 16567 ft | 142 kts | 62° |
| 2026-05-08 15:02 | -13.44470 | -71.85431 | 16484 ft | 174 kts | 63° |
| 2026-05-08 15:02 | -13.43836 | -71.84307 | 16528 ft | 188 kts | 52° |
| 2026-05-08 15:02 | -13.42705 | -71.83714 | 16584 ft | 194 kts | 351° |
| 2026-05-08 15:03 | -13.41955 | -71.84746 | 16656 ft | 194 kts | 294° |
| 2026-05-08 15:03 | -13.41266 | -71.85991 | 16636 ft | 208 kts | 304° |
| 2026-05-08 15:03 | -13.40252 | -71.87121 | 16603 ft | 223 kts | 323° |
| 2026-05-08 15:03 | -13.38900 | -71.87926 | 16609 ft | 234 kts | 334° |
| 2026-05-08 15:04 | -13.37368 | -71.88590 | 16616 ft | 241 kts | 337° |
| 2026-05-08 15:04 | -13.35874 | -71.89298 | 17049 ft | 223 kts | 332° |
| 2026-05-08 15:04 | -13.34602 | -71.90017 | 17783 ft | 198 kts | 319° |
| 2026-05-08 15:04 | -13.33888 | -71.91238 | 17727 ft | 214 kts | 285° |
| 2026-05-08 15:05 | -13.33798 | -71.91555 | 17361 ft | 205 kts | 288° |
| 2026-05-08 15:06 | -13.33238 | -71.93320 | 16025 ft | 279 kts | 290° |
| 2026-05-08 15:06 | -13.32564 | -71.95148 | 16072 ft | 268 kts | 289° |
| 2026-05-08 15:07 | -13.32373 | -71.96977 | 16101 ft | 259 kts | 264° |
| 2026-05-08 15:07 | -13.32585 | -71.98789 | 16160 ft | 253 kts | 263° |
| 2026-05-08 15:07 | -13.32726 | -72.00459 | 16186 ft | 199 kts | 266° |
| 2026-05-08 15:07 | -13.32909 | -72.01740 | 16144 ft | 183 kts | 269° |
| 2026-05-08 15:08 | -13.33115 | -72.03084 | 16205 ft | 196 kts | 250° |
| 2026-05-08 15:08 | -13.33468 | -72.03932 | 16404 ft | 194 kts | 248° |
| 2026-05-08 15:08 | -13.33921 | -72.05593 | 17083 ft | 176 kts | 270° |
| 2026-05-08 15:08 | -13.33542 | -72.06854 | 16771 ft | 208 kts | 306° |
| 2026-05-08 15:09 | -13.32599 | -72.07918 | 17440 ft | 176 kts | 310° |
| 2026-05-08 15:09 | -13.31822 | -72.08838 | 17810 ft | 179 kts | 311° |
| 2026-05-08 15:09 | -13.30988 | -72.09823 | 17980 ft | 185 kts | 308° |
| 2026-05-08 15:09 | -13.30217 | -72.10892 | 18136 ft | 191 kts | 305° |
| 2026-05-08 15:10 | -13.29495 | -72.12032 | 18324 ft | 195 kts | 301° |
| 2026-05-08 15:10 | -13.28728 | -72.13235 | 18400 ft | 205 kts | 308° |
| 2026-05-08 15:10 | -13.27912 | -72.14375 | 18749 ft | 195 kts | 301° |
| 2026-05-08 15:10 | -13.27228 | -72.15575 | 19026 ft | 195 kts | 299° |
| 2026-05-08 15:11 | -13.26509 | -72.16801 | 19094 ft | 206 kts | 300° |
| 2026-05-08 15:11 | -13.25765 | -72.18065 | 19302 ft | 205 kts | 301° |
| 2026-05-08 15:11 | -13.25106 | -72.19342 | 19580 ft | 200 kts | 294° |
| 2026-05-08 15:11 | -13.24602 | -72.20697 | 19458 ft | 208 kts | 291° |
| 2026-05-08 15:12 | -13.23888 | -72.22046 | 19290 ft | 215 kts | 295° |
| 2026-05-08 15:12 | -13.23724 | -72.23484 | 19533 ft | 203 kts | 264° |
| 2026-05-08 15:12 | -13.23942 | -72.24919 | 19491 ft | 206 kts | 261° |
| 2026-05-08 15:12 | -13.24190 | -72.26373 | 19577 ft | 200 kts | 269° |
| 2026-05-08 15:13 | -13.23859 | -72.27758 | 19501 ft | 207 kts | 291° |
| 2026-05-08 15:13 | -13.23328 | -72.29172 | 19328 ft | 215 kts | 290° |
| 2026-05-08 15:13 | -13.22771 | -72.30560 | 19525 ft | 202 kts | 288° |
| 2026-05-08 15:13 | -13.22909 | -72.31887 | 19778 ft | 194 kts | 236° |
| 2026-05-08 15:14 | -13.24093 | -72.32704 | 19183 ft | 228 kts | 191° |
| 2026-05-08 15:14 | -13.25416 | -72.32083 | 19408 ft | 216 kts | 124° |
| 2026-05-08 15:14 | -13.25545 | -72.30578 | 19036 ft | 231 kts | 66° |
| 2026-05-08 15:14 | -13.24809 | -72.29136 | 19039 ft | 227 kts | 62° |
| 2026-05-08 15:15 | -13.24157 | -72.27660 | 19045 ft | 220 kts | 81° |
| 2026-05-08 15:15 | -13.24587 | -72.26308 | 19300 ft | 206 kts | 143° |
| 2026-05-08 15:15 | -13.25819 | -72.26462 | 19331 ft | 196 kts | 238° |
| 2026-05-08 15:15 | -13.25858 | -72.27832 | 19361 ft | 200 kts | 277° |
| 2026-05-08 15:16 | -13.25685 | -72.29287 | 19345 ft | 209 kts | 277° |
| 2026-05-08 15:16 | -13.25505 | -72.30786 | 19338 ft | 214 kts | 278° |
| 2026-05-08 15:16 | -13.25310 | -72.32315 | 19346 ft | 218 kts | 278° |
| 2026-05-08 15:16 | -13.25100 | -72.33854 | 19346 ft | 223 kts | 278° |
| 2026-05-08 15:17 | -13.24868 | -72.35429 | 19357 ft | 224 kts | 279° |
| 2026-05-08 15:17 | -13.24616 | -72.37024 | 19359 ft | 227 kts | 279° |
| 2026-05-08 15:17 | -13.24340 | -72.38626 | 19360 ft | 229 kts | 281° |
| 2026-05-08 15:17 | -13.24048 | -72.40232 | 19368 ft | 229 kts | 281° |
| 2026-05-08 15:18 | -13.23793 | -72.41849 | 19377 ft | 229 kts | 279° |
| 2026-05-08 15:18 | -13.23794 | -72.43462 | 19387 ft | 226 kts | 259° |
| 2026-05-08 15:18 | -13.23989 | -72.45059 | 19388 ft | 226 kts | 269° |
| 2026-05-08 15:18 | -13.23959 | -72.46678 | 19370 ft | 228 kts | 274° |
| 2026-05-08 15:19 | -13.23776 | -72.48283 | 19374 ft | 226 kts | 278° |
| 2026-05-08 15:19 | -13.23523 | -72.49862 | 19372 ft | 228 kts | 281° |
| 2026-05-08 15:19 | -13.23145 | -72.51446 | 19433 ft | 228 kts | 294° |
| 2026-05-08 15:19 | -13.22190 | -72.52727 | 19513 ft | 231 kts | 326° |
| 2026-05-08 15:20 | -13.20806 | -72.53599 | 19479 ft | 236 kts | 338° |
| 2026-05-08 15:20 | -13.19075 | -72.53804 | 18816 ft | 266 kts | 358° |
| 2026-05-08 15:20 | -13.17154 | -72.53683 | 18013 ft | 287 kts | 16° |
| 2026-05-08 15:20 | -13.15369 | -72.52862 | 17721 ft | 272 kts | 28° |
| 2026-05-08 15:21 | -13.13647 | -72.52535 | 17731 ft | 248 kts | 346° |
| 2026-05-08 15:21 | -13.12774 | -72.53733 | 16907 ft | 255 kts | 237° |
| 2026-05-08 15:21 | -13.14405 | -72.54190 | 16797 ft | 246 kts | 182° |
| 2026-05-08 15:21 | -13.15718 | -72.54871 | 16899 ft | 211 kts | 259° |
| 2026-05-08 15:22 | -13.16547 | -72.55798 | 16901 ft | 204 kts | 158° |
| 2026-05-08 15:22 | -13.16831 | -72.54665 | 16906 ft | 194 kts | 30° |
| 2026-05-08 15:22 | -13.15578 | -72.54258 | 16965 ft | 188 kts | 26° |
| 2026-05-08 15:22 | -13.14997 | -72.53173 | 17030 ft | 186 kts | 101° |
| 2026-05-08 15:23 | -13.15502 | -72.51960 | 17045 ft | 187 kts | 117° |
| 2026-05-08 15:23 | -13.16476 | -72.51216 | 17147 ft | 178 kts | 175° |
| 2026-05-08 15:23 | -13.17448 | -72.51806 | 17228 ft | 168 kts | 235° |
| 2026-05-08 15:23 | -13.17648 | -72.52949 | 17462 ft | 154 kts | 271° |
| 2026-05-08 15:24 | -13.17610 | -72.54016 | 17278 ft | 168 kts | 276° |
| 2026-05-08 15:24 | -13.17760 | -72.55416 | 16371 ft | 217 kts | 229° |
| 2026-05-08 15:24 | -13.18907 | -72.55720 | 17483 ft | 157 kts | 152° |
| 2026-05-08 15:24 | -13.19045 | -72.54859 | 16398 ft | 94 kts | 95° |
| 2026-05-08 15:25 | -13.18808 | -72.54345 | 11951 ft | 159 kts | 46° |
| 2026-05-08 15:25 | -13.18344 | -72.53515 | 7863 ft | 0 kts | 123° |
| 2026-05-08 15:25 | -13.53730 | -71.92360 | 10710 ft | 0 kts | 276° |
| 2026-05-08 15:26 | -13.53721 | -71.92455 | 10712 ft | 35 kts | 277° |
| 2026-05-08 15:26 | -13.53679 | -71.92853 | 10735 ft | 77 kts | 274° |
| 2026-05-08 15:26 | -13.53640 | -71.93535 | 10775 ft | 113 kts | 270° |
| 2026-05-08 15:26 | -13.53599 | -71.94336 | 11220 ft | 101 kts | 283° |
| 2026-05-08 15:27 | -13.53466 | -71.94996 | 11563 ft | 101 kts | 279° |
| 2026-05-08 15:27 | -13.53428 | -71.95634 | 11982 ft | 70 kts | 276° |
| 2026-05-08 15:27 | -13.53399 | -71.96027 | 11921 ft | 101 kts | 270° |
| 2026-05-08 15:27 | -13.53350 | -71.96884 | 11955 ft | 135 kts | 282° |
| 2026-05-08 15:28 | -13.52903 | -71.97831 | 12032 ft | 164 kts | 297° |
| 2026-05-08 15:28 | -13.52320 | -71.98802 | 12624 ft | 151 kts | 320° |
| 2026-05-08 15:28 | -13.51318 | -71.98811 | 13108 ft | 157 kts | 33° |
| 2026-05-08 15:28 | -13.50584 | -71.97794 | 13017 ft | 193 kts | 58° |
| 2026-05-08 15:29 | -13.49896 | -71.96483 | 13173 ft | 203 kts | 63° |
| 2026-05-08 15:29 | -13.49424 | -71.95327 | 14388 ft | 156 kts | 71° |
| 2026-05-08 15:29 | -13.49080 | -71.94205 | 14517 ft | 156 kts | 70° |
| 2026-05-08 15:29 | -13.48733 | -71.93132 | 14699 ft | 172 kts | 72° |